Time;durP1;ratioP1;P1;durP2;ratioP2;P2;SDS_P1;SDS_P2;PMS_P1;PMS_P2;Temp;Humidity;BMP_temperature;BMP_pressure;BME280_temperature;BME280_humidity;BME280_pressure;Samples;Min_cycle;Max_cycle;Signal;HPM_P1;HPM_P2
2021/01/29 00:01:13;;;;;;;5.63;5.13;;;6.60;99.90;;;;;;5135373;27;20199;-72
2021/01/29 00:03:39;;;;;;;4.70;4.32;;;6.70;99.90;;;;;;5136379;27;20192;-72
2021/01/29 00:06:06;;;;;;;3.97;3.67;;;6.70;99.90;;;;;;5148857;27;20203;-72
2021/01/29 00:08:33;;;;;;;5.40;4.90;;;6.60;99.90;;;;;;5145306;27;20192;-72
2021/01/29 00:11:01;;;;;;;5.28;4.57;;;6.60;99.90;;;;;;5152537;27;20199;-72
2021/01/29 00:13:28;;;;;;;5.18;4.68;;;6.60;99.90;;;;;;5137360;27;20219;-72
2021/01/29 00:15:55;;;;;;;4.57;4.15;;;6.70;99.90;;;;;;5154112;27;20588;-72
2021/01/29 00:18:22;;;;;;;6.35;4.75;;;6.70;99.90;;;;;;5153088;27;20199;-72
2021/01/29 00:20:49;;;;;;;4.63;4.07;;;6.60;99.90;;;;;;5150973;27;20270;-73
2021/01/29 00:23:16;;;;;;;5.00;4.50;;;6.60;99.90;;;;;;5139914;27;20195;-73
2021/01/29 00:25:46;;;;;;;4.82;4.30;;;6.70;99.90;;;;;;5148651;27;20217;-73
2021/01/29 00:28:14;;;;;;;7.82;4.10;;;6.70;99.90;;;;;;5131598;27;20200;-73
2021/01/29 00:30:41;;;;;;;4.57;3.67;;;6.60;99.90;;;;;;5141146;27;20222;-73
2021/01/29 00:33:09;;;;;;;5.63;4.97;;;6.60;99.90;;;;;;5147632;27;20212;-73
2021/01/29 00:35:36;;;;;;;6.40;5.15;;;6.60;99.90;;;;;;5131959;27;20196;-73
2021/01/29 00:38:04;;;;;;;5.65;4.43;;;6.60;99.90;;;;;;5136594;27;20204;-72
2021/01/29 00:40:30;;;;;;;3.60;3.30;;;6.60;99.90;;;;;;5131411;27;20248;-73
2021/01/29 00:42:57;;;;;;;3.47;3.17;;;6.60;99.90;;;;;;5148442;27;20191;-73
2021/01/29 00:45:27;;;;;;;7.63;4.97;;;6.60;99.90;;;;;;5130072;27;20587;-73
2021/01/29 00:47:54;;;;;;;4.72;4.18;;;6.60;99.90;;;;;;5132539;27;20196;-73
2021/01/29 00:50:20;;;;;;;4.20;3.80;;;6.70;99.90;;;;;;5132805;27;20196;-73
2021/01/29 00:52:47;;;;;;;4.57;4.05;;;6.60;99.90;;;;;;5135610;27;20265;-73
2021/01/29 00:55:15;;;;;;;5.47;4.95;;;6.60;99.90;;;;;;5134141;27;20211;-73
2021/01/29 00:57:42;;;;;;;4.60;4.20;;;6.60;99.90;;;;;;5132235;27;20203;-73
2021/01/29 01:00:11;;;;;;;5.82;4.50;;;6.60;99.90;;;;;;5145613;27;20192;-73
2021/01/29 01:02:38;;;;;;;4.15;3.58;;;6.70;99.90;;;;;;5136697;27;20191;-73
2021/01/29 01:05:06;;;;;;;4.40;3.95;;;6.70;99.90;;;;;;5153521;27;20191;-73
2021/01/29 01:07:32;;;;;;;6.07;4.35;;;6.60;99.90;;;;;;5152360;27;20203;-72
2021/01/29 01:09:58;;;;;;;5.32;4.05;;;6.60;99.90;;;;;;5153259;27;20210;-73
2021/01/29 01:12:24;;;;;;;5.30;4.35;;;6.60;99.90;;;;;;5144973;27;20191;-73
2021/01/29 01:14:51;;;;;;;5.15;4.63;;;6.60;99.90;;;;;;5153004;27;20209;-73
2021/01/29 01:17:18;;;;;;;5.60;4.32;;;6.60;99.90;;;;;;5147093;27;20192;-73
2021/01/29 01:19:45;;;;;;;5.10;4.53;;;6.60;99.90;;;;;;5140750;27;20200;-72
2021/01/29 01:22:12;;;;;;;5.10;4.40;;;6.60;99.90;;;;;;5137412;27;20211;-73
2021/01/29 01:24:39;;;;;;;4.55;3.40;;;6.60;99.90;;;;;;5131685;27;20204;-73
2021/01/29 01:27:07;;;;;;;5.15;4.68;;;6.60;99.90;;;;;;5141921;27;20200;-73
2021/01/29 01:29:34;;;;;;;7.40;5.55;;;6.60;99.90;;;;;;5151840;27;20199;-73
2021/01/29 01:32:00;;;;;;;5.43;4.90;;;6.60;99.90;;;;;;5146782;27;20191;-73
2021/01/29 01:34:26;;;;;;;4.97;4.18;;;6.60;99.90;;;;;;5143429;27;20239;-73
2021/01/29 01:36:53;;;;;;;5.35;4.30;;;6.60;99.90;;;;;;5146624;27;20700;-72
2021/01/29 01:39:20;;;;;;;4.93;4.07;;;6.60;99.90;;;;;;5149899;27;20200;-73
2021/01/29 01:41:46;;;;;;;5.53;5.00;;;6.60;99.90;;;;;;5140719;27;20200;-72
2021/01/29 01:44:33;;;;;;;4.90;4.25;;;6.60;99.90;;;;;;5155839;27;20200;-72
2021/01/29 01:47:03;;;;;;;6.28;4.72;;;6.60;99.90;;;;;;5145512;27;20810;-73
2021/01/29 01:49:31;;;;;;;5.93;3.97;;;6.60;99.90;;;;;;5135192;27;20196;-73
2021/01/29 01:52:04;;;;;;;6.50;4.82;;;6.60;99.90;;;;;;5146829;27;20227;-73
2021/01/29 01:54:37;;;;;;;4.00;3.55;;;6.60;99.90;;;;;;5153480;27;20204;-73
2021/01/29 01:57:05;;;;;;;6.50;4.75;;;6.60;99.90;;;;;;5155753;27;20188;-74
2021/01/29 01:59:36;;;;;;;4.28;3.75;;;6.60;99.90;;;;;;5153404;27;20195;-73
2021/01/29 02:02:04;;;;;;;5.50;4.70;;;6.60;99.90;;;;;;5135571;27;20200;-73
2021/01/29 02:04:35;;;;;;;5.15;4.53;;;6.60;99.90;;;;;;5138375;27;20185;-74
2021/01/29 02:07:12;;;;;;;4.35;3.95;;;6.60;99.90;;;;;;5137564;27;20192;-73
2021/01/29 02:09:43;;;;;;;5.60;3.75;;;6.60;99.90;;;;;;5136128;27;20184;-73
2021/01/29 02:12:10;;;;;;;4.47;3.50;;;6.60;99.90;;;;;;5149721;27;20195;-72
2021/01/29 02:14:36;;;;;;;4.75;3.90;;;6.60;99.90;;;;;;5136679;27;20280;-73
2021/01/29 02:17:10;;;;;;;4.88;4.25;;;6.60;99.90;;;;;;5146706;27;20198;-73
2021/01/29 02:20:10;;;;;;;4.88;4.07;;;6.60;99.90;;;;;;5139671;27;20905;-73
2021/01/29 02:23:10;;;;;;;8.32;3.78;;;6.60;99.90;;;;;;5143329;27;20207;-73
2021/01/29 02:26:12;;;;;;;4.50;3.35;;;6.60;99.90;;;;;;5131304;27;20200;-73
2021/01/29 02:29:07;;;;;;;7.47;4.18;;;6.60;99.90;;;;;;5135025;27;20261;-71
2021/01/29 02:31:56;;;;;;;4.65;3.38;;;6.60;99.90;;;;;;5141442;27;20198;-71
2021/01/29 02:35:00;;;;;;;4.35;3.95;;;6.60;99.90;;;;;;5142496;27;20211;-71
2021/01/29 02:38:03;;;;;;;5.13;3.60;;;6.60;99.90;;;;;;5133678;27;20208;-71
2021/01/29 02:40:35;;;;;;;3.80;3.30;;;6.60;99.90;;;;;;5133457;27;20219;-71
2021/01/29 02:43:17;;;;;;;5.00;3.63;;;6.60;99.90;;;;;;5132571;27;20237;-71
2021/01/29 02:45:51;;;;;;;4.63;3.63;;;6.60;99.90;;;;;;5133850;27;20602;-71
2021/01/29 02:48:29;;;;;;;4.97;3.80;;;6.60;99.90;;;;;;5151817;27;20191;-71
2021/01/29 02:51:03;;;;;;;6.40;3.85;;;6.60;99.90;;;;;;5133563;27;20184;-71
2021/01/29 02:53:38;;;;;;;4.78;3.38;;;6.60;99.90;;;;;;5143693;27;20513;-71
2021/01/29 02:56:15;;;;;;;4.43;4.00;;;6.60;99.90;;;;;;5132993;27;20191;-72
2021/01/29 02:58:47;;;;;;;3.70;3.15;;;6.60;99.90;;;;;;5150260;27;20210;-71
2021/01/29 03:01:18;;;;;;;5.75;4.32;;;6.60;99.90;;;;;;5145390;27;20187;-71
2021/01/29 03:03:52;;;;;;;5.10;3.75;;;6.60;99.90;;;;;;5150973;27;20225;-71
2021/01/29 03:06:24;;;;;;;5.80;3.83;;;6.60;99.90;;;;;;5134651;27;20192;-71
2021/01/29 03:08:56;;;;;;;5.68;4.28;;;6.60;99.90;;;;;;5142054;27;20192;-71
2021/01/29 03:11:31;;;;;;;4.97;4.35;;;6.60;99.90;;;;;;5138777;27;20191;-72
2021/01/29 03:14:07;;;;;;;4.32;3.67;;;6.60;99.90;;;;;;5150886;27;20219;-71
2021/01/29 03:16:39;;;;;;;5.95;4.00;;;6.60;99.90;;;;;;5153729;27;20195;-71
2021/01/29 03:19:11;;;;;;;4.45;3.78;;;6.60;99.90;;;;;;5134838;27;20204;-71
2021/01/29 03:21:41;;;;;;;5.38;3.88;;;6.60;99.90;;;;;;5145411;27;20198;-71
2021/01/29 03:24:14;;;;;;;5.13;4.40;;;6.60;99.90;;;;;;5143355;27;20657;-71
2021/01/29 03:26:49;;;;;;;5.55;4.30;;;6.60;99.90;;;;;;5141692;27;20211;-71
2021/01/29 03:29:19;;;;;;;3.63;3.25;;;6.60;99.90;;;;;;5133939;27;20195;-71
2021/01/29 03:31:51;;;;;;;7.03;3.95;;;6.60;99.90;;;;;;5132728;27;20192;-71
2021/01/29 03:34:22;;;;;;;4.22;3.70;;;6.60;99.90;;;;;;5140977;27;20249;-72
2021/01/29 03:36:54;;;;;;;4.60;3.83;;;6.60;99.90;;;;;;5153769;27;20195;-71
2021/01/29 03:39:26;;;;;;;3.95;3.40;;;6.60;99.90;;;;;;5153448;27;20191;-71
2021/01/29 03:42:02;;;;;;;4.80;3.30;;;6.70;99.90;;;;;;5149016;27;20195;-71
2021/01/29 03:44:40;;;;;;;4.30;3.38;;;6.60;99.90;;;;;;5136158;27;20206;-72
2021/01/29 03:47:11;;;;;;;7.25;3.45;;;6.70;99.90;;;;;;5132543;27;20192;-71
2021/01/29 03:49:45;;;;;;;4.13;3.50;;;6.70;99.90;;;;;;5132262;27;20195;-71
2021/01/29 03:52:18;;;;;;;4.25;3.85;;;6.60;99.90;;;;;;5140769;27;20235;-71
2021/01/29 03:54:50;;;;;;;4.13;3.70;;;6.70;99.90;;;;;;5152195;27;20219;-72
2021/01/29 03:57:24;;;;;;;5.88;3.95;;;6.70;99.90;;;;;;5148412;27;20192;-72
2021/01/29 04:00:06;;;;;;;4.70;3.65;;;6.60;99.90;;;;;;5146842;27;20717;-71
2021/01/29 04:02:43;;;;;;;4.82;3.45;;;6.70;99.90;;;;;;5152723;27;20199;-71
2021/01/29 04:05:14;;;;;;;4.03;3.15;;;6.60;99.90;;;;;;5138811;27;20199;-72
2021/01/29 04:07:49;;;;;;;3.88;3.33;;;6.60;99.90;;;;;;5132519;27;20215;-71
2021/01/29 04:10:19;;;;;;;6.55;3.83;;;6.60;99.90;;;;;;5133857;27;20199;-71
2021/01/29 04:12:50;;;;;;;4.60;4.20;;;6.60;99.90;;;;;;5150923;27;20202;-72
2021/01/29 04:15:23;;;;;;;4.43;3.75;;;6.60;99.90;;;;;;5148953;27;20532;-72
2021/01/29 04:17:54;;;;;;;6.53;3.95;;;6.60;99.90;;;;;;5151854;27;20204;-71
2021/01/29 04:20:25;;;;;;;3.80;3.50;;;6.70;99.90;;;;;;5149073;27;20195;-72
2021/01/29 04:22:55;;;;;;;4.20;3.70;;;6.70;99.90;;;;;;5149760;27;20195;-71
2021/01/29 04:25:25;;;;;;;4.68;3.78;;;6.70;99.90;;;;;;5136665;27;20195;-71
2021/01/29 04:27:59;;;;;;;3.85;3.50;;;6.70;99.90;;;;;;5152642;27;20200;-72
2021/01/29 04:30:29;;;;;;;4.78;3.50;;;6.70;99.90;;;;;;5139201;27;20214;-72
2021/01/29 04:32:59;;;;;;;4.88;4.25;;;6.70;99.90;;;;;;5134424;27;20232;-72
2021/01/29 04:35:27;;;;;;;5.20;3.92;;;6.70;99.90;;;;;;5131913;27;20620;-72
2021/01/29 04:38:03;;;;;;;4.53;3.30;;;6.70;99.90;;;;;;5135382;27;20199;-72
2021/01/29 04:40:34;;;;;;;5.22;4.28;;;6.70;99.90;;;;;;5136500;27;20210;-72
2021/01/29 04:43:13;;;;;;;4.53;3.50;;;6.70;99.90;;;;;;5144680;27;20703;-72
2021/01/29 04:46:12;;;;;;;4.47;3.58;;;6.70;99.90;;;;;;5131991;27;20180;-72
2021/01/29 04:48:44;;;;;;;4.25;3.38;;;6.80;99.90;;;;;;5135648;27;20187;-72
2021/01/29 04:51:40;;;;;;;4.40;3.20;;;6.80;99.90;;;;;;5143222;27;20199;-71
2021/01/29 04:54:42;;;;;;;5.75;3.63;;;6.80;99.90;;;;;;5143029;27;20210;-71
2021/01/29 04:57:41;;;;;;;5.10;4.35;;;6.80;99.90;;;;;;5135843;27;20301;-71
2021/01/29 05:00:38;;;;;;;4.55;4.10;;;6.80;99.90;;;;;;5131321;28;20214;-71
2021/01/29 05:03:40;;;;;;;3.95;3.00;;;6.70;99.90;;;;;;5130218;27;20249;-71
2021/01/29 05:06:43;;;;;;;5.22;3.40;;;6.80;99.90;;;;;;5112984;27;20199;-71
2021/01/29 05:10:12;;;;;;;3.95;2.83;;;6.80;99.90;;;;;;5101667;27;20214;-72
2021/01/29 05:13:04;;;;;;;3.25;2.92;;;6.80;99.90;;;;;;5135546;27;20253;-72
2021/01/29 05:15:51;;;;;;;3.65;3.35;;;6.80;99.90;;;;;;5155076;27;20214;-72
2021/01/29 05:18:36;;;;;;;4.32;3.35;;;6.80;99.90;;;;;;5143961;27;20196;-72
2021/01/29 05:21:41;;;;;;;3.63;3.30;;;6.80;99.90;;;;;;5140810;27;20198;-72
2021/01/29 05:24:23;;;;;;;3.85;3.13;;;6.80;99.90;;;;;;5114895;27;20745;-72
2021/01/29 05:27:10;;;;;;;5.03;3.80;;;6.80;99.90;;;;;;5137254;27;20181;-73
2021/01/29 05:29:51;;;;;;;4.50;3.60;;;6.80;99.90;;;;;;5135434;27;20203;-73
2021/01/29 05:32:42;;;;;;;4.13;3.72;;;6.80;99.90;;;;;;5139054;27;20191;-72
2021/01/29 05:35:24;;;;;;;4.70;3.60;;;6.80;99.90;;;;;;5141838;27;20219;-71
2021/01/29 05:38:16;;;;;;;4.93;3.83;;;6.80;99.90;;;;;;5141330;27;20424;-72
2021/01/29 05:41:23;;;;;;;3.70;3.30;;;6.80;99.90;;;;;;5145494;27;20199;-72
2021/01/29 05:44:04;;;;;;;2.95;2.55;;;6.80;99.90;;;;;;5142832;27;20189;-73
2021/01/29 05:46:37;;;;;;;3.60;3.30;;;6.90;99.90;;;;;;5144982;27;20235;-72
2021/01/29 05:49:20;;;;;;;4.10;3.70;;;6.90;99.90;;;;;;5145823;27;20187;-72
2021/01/29 05:52:19;;;;;;;5.75;3.60;;;6.90;99.90;;;;;;5146012;27;20224;-72
2021/01/29 05:55:13;;;;;;;4.03;3.22;;;6.90;99.90;;;;;;5139695;27;20215;-72
2021/01/29 05:58:02;;;;;;;5.68;3.78;;;7.00;99.90;;;;;;5147532;27;20195;-72
2021/01/29 06:00:44;;;;;;;5.07;3.47;;;6.90;99.90;;;;;;5143250;27;20192;-71
2021/01/29 06:03:27;;;;;;;5.75;3.20;;;6.90;99.90;;;;;;5141216;27;20663;-71
2021/01/29 06:06:28;;;;;;;3.88;2.70;;;6.90;99.90;;;;;;5142216;27;20192;-71
2021/01/29 06:09:22;;;;;;;5.60;2.70;;;6.90;99.90;;;;;;5140421;27;20220;-71
2021/01/29 06:11:54;;;;;;;3.63;3.20;;;6.90;99.90;;;;;;5148180;27;20192;-71
2021/01/29 06:14:48;;;;;;;3.10;2.80;;;6.90;99.90;;;;;;5144917;27;20582;-71
2021/01/29 06:17:47;;;;;;;4.75;3.60;;;6.90;99.90;;;;;;5153630;27;20268;-72
2021/01/29 06:20:54;;;;;;;3.97;2.80;;;6.90;99.90;;;;;;5134471;27;20207;-71
2021/01/29 06:23:52;;;;;;;4.63;2.78;;;6.90;99.90;;;;;;5142425;27;20191;-71
2021/01/29 06:26:43;;;;;;;4.40;3.22;;;6.90;99.90;;;;;;5141765;27;20200;-71
2021/01/29 06:29:39;;;;;;;3.15;2.40;;;7.00;99.90;;;;;;5142598;27;20195;-71
2021/01/29 06:32:34;;;;;;;3.83;2.90;;;6.90;99.90;;;;;;5144359;27;20200;-71
2021/01/29 06:35:20;;;;;;;3.08;2.80;;;6.90;99.90;;;;;;5153266;27;20237;-72
2021/01/29 06:38:00;;;;;;;3.88;2.47;;;7.00;99.90;;;;;;5142407;27;20538;-71
2021/01/29 06:40:33;;;;;;;3.13;2.83;;;7.00;99.90;;;;;;5147119;27;20195;-71
2021/01/29 06:43:32;;;;;;;3.30;3.00;;;7.00;99.90;;;;;;5140416;27;20220;-72
2021/01/29 06:46:44;;;;;;;2.70;2.30;;;7.00;99.90;;;;;;5124372;27;20677;-72
2021/01/29 06:49:49;;;;;;;3.35;3.05;;;7.00;99.90;;;;;;5064516;28;20197;-72
2021/01/29 06:53:00;;;;;;;2.83;2.53;;;7.00;99.90;;;;;;5141764;27;20236;-72
2021/01/29 06:55:50;;;;;;;4.35;3.40;;;7.00;99.90;;;;;;5138175;27;20230;-72
2021/01/29 06:58:53;;;;;;;3.60;2.47;;;7.00;99.90;;;;;;5138102;27;20195;-72
2021/01/29 07:01:42;;;;;;;3.08;2.40;;;7.00;99.90;;;;;;5144421;27;20198;-71
2021/01/29 07:04:48;;;;;;;2.95;2.08;;;6.90;99.90;;;;;;5146581;27;20187;-71
2021/01/29 07:07:24;;;;;;;3.25;2.50;;;7.00;99.90;;;;;;5145269;27;20195;-71
2021/01/29 07:10:10;;;;;;;2.72;2.50;;;7.00;99.90;;;;;;5133733;27;20212;-71
2021/01/29 07:12:55;;;;;;;2.90;2.60;;;7.00;99.90;;;;;;5140126;27;20202;-71
2021/01/29 07:15:35;;;;;;;3.75;2.63;;;7.00;99.90;;;;;;5134526;27;20584;-71
2021/01/29 07:18:16;;;;;;;3.30;2.38;;;7.00;99.90;;;;;;5140522;27;20196;-71
2021/01/29 07:21:01;;;;;;;2.88;2.40;;;7.10;99.90;;;;;;5141198;27;20195;-71
2021/01/29 07:23:57;;;;;;;3.40;2.53;;;7.00;99.90;;;;;;5150324;27;20195;-71
2021/01/29 07:26:51;;;;;;;3.65;2.30;;;7.00;99.90;;;;;;5141584;27;20199;-72
2021/01/29 07:29:52;;;;;;;3.13;1.88;;;7.10;99.90;;;;;;5134006;27;20227;-71
2021/01/29 07:32:27;;;;;;;5.13;2.50;;;7.00;99.90;;;;;;5125647;27;20256;-71
2021/01/29 07:34:59;;;;;;;3.13;2.00;;;7.10;99.90;;;;;;5152988;27;20210;-71
2021/01/29 07:38:00;;;;;;;1.92;1.67;;;7.00;99.90;;;;;;5152653;27;20207;-71
2021/01/29 07:41:05;;;;;;;2.80;2.28;;;7.10;99.90;;;;;;5133219;27;20203;-71
2021/01/29 07:43:47;;;;;;;2.50;2.05;;;7.00;99.90;;;;;;5144012;27;20193;-72
2021/01/29 07:46:47;;;;;;;2.45;2.22;;;7.10;99.90;;;;;;5133971;27;20217;-71
2021/01/29 07:49:36;;;;;;;2.40;2.20;;;7.10;99.90;;;;;;5133027;27;20184;-71
2021/01/29 07:52:18;;;;;;;2.53;2.33;;;7.10;99.90;;;;;;5134820;27;20335;-71
2021/01/29 07:55:11;;;;;;;2.75;2.47;;;7.10;99.90;;;;;;5136348;27;20276;-72
2021/01/29 07:58:23;;;;;;;2.42;1.92;;;7.10;99.90;;;;;;5134066;27;20232;-73
2021/01/29 08:01:00;;;;;;;3.15;2.17;;;7.10;99.90;;;;;;5139993;27;20207;-71
2021/01/29 08:03:52;;;;;;;2.33;1.88;;;7.10;99.90;;;;;;5139510;27;20188;-71
2021/01/29 08:06:23;;;;;;;3.80;3.38;;;7.10;99.90;;;;;;5131807;27;20207;-71
2021/01/29 08:08:57;;;;;;;3.15;2.30;;;7.10;99.90;;;;;;5138933;27;20203;-71
2021/01/29 08:11:24;;;;;;;3.40;3.10;;;7.10;99.90;;;;;;5139100;27;20238;-72
2021/01/29 08:14:19;;;;;;;2.38;2.17;;;7.10;99.90;;;;;;5142592;27;20226;-70
2021/01/29 08:17:07;;;;;;;3.00;2.67;;;7.10;99.90;;;;;;5136072;27;20585;-70
2021/01/29 08:19:49;;;;;;;2.90;2.60;;;7.10;99.90;;;;;;5123481;27;20195;-70
2021/01/29 08:22:54;;;;;;;3.22;2.95;;;7.00;99.90;;;;;;5136889;27;20544;-72
2021/01/29 08:25:41;;;;;;;3.63;2.92;;;7.00;99.90;;;;;;5047853;28;20638;-70
2021/01/29 08:28:36;;;;;;;3.90;3.15;;;7.00;99.90;;;;;;5140389;27;20229;-73
2021/01/29 08:31:32;;;;;;;2.55;2.25;;;7.00;99.90;;;;;;5134818;27;20185;-72
2021/01/29 08:34:31;;;;;;;2.45;2.25;;;7.00;99.90;;;;;;5148922;27;20334;-73
2021/01/29 08:37:15;;;;;;;3.05;2.67;;;7.10;99.90;;;;;;5132288;27;20632;-73
2021/01/29 08:39:50;;;;;;;2.63;2.25;;;7.10;99.90;;;;;;5146272;27;20194;-73
2021/01/29 08:42:30;;;;;;;2.90;2.22;;;7.10;99.90;;;;;;5140285;27;20285;-73
2021/01/29 08:45:19;;;;;;;2.78;2.53;;;7.10;99.90;;;;;;5142769;27;20191;-73
2021/01/29 08:48:06;;;;;;;2.35;2.03;;;7.20;99.90;;;;;;5148413;27;20763;-73
2021/01/29 08:50:50;;;;;;;3.05;2.40;;;7.20;99.90;;;;;;5130982;27;20188;-73
2021/01/29 08:53:55;;;;;;;3.17;2.83;;;7.20;99.90;;;;;;5145902;27;20272;-72
2021/01/29 08:56:28;;;;;;;2.42;2.22;;;7.30;99.90;;;;;;5148917;27;20258;-73
2021/01/29 08:58:59;;;;;;;2.72;2.25;;;7.20;99.90;;;;;;5132196;28;20199;-73
2021/01/29 09:01:32;;;;;;;3.22;2.58;;;7.30;99.90;;;;;;5131482;28;20623;-72
2021/01/29 09:04:03;;;;;;;2.83;2.58;;;7.30;99.90;;;;;;5132158;28;20176;-73
2021/01/29 09:06:38;;;;;;;2.65;2.30;;;7.30;99.90;;;;;;5131416;28;20195;-73
2021/01/29 09:09:08;;;;;;;2.28;1.80;;;7.30;99.90;;;;;;5149729;27;20182;-72
2021/01/29 09:11:37;;;;;;;2.17;2.08;;;7.30;99.90;;;;;;5148324;27;20189;-72
2021/01/29 09:14:11;;;;;;;2.42;2.22;;;7.40;99.90;;;;;;5134862;27;20211;-74
2021/01/29 09:16:41;;;;;;;2.33;2.10;;;7.40;99.90;;;;;;5136681;27;20572;-73
2021/01/29 09:19:11;;;;;;;4.05;2.10;;;7.40;99.90;;;;;;5143115;27;20196;-73
2021/01/29 09:21:46;;;;;;;2.75;2.55;;;7.40;99.90;;;;;;5139842;27;20195;-73
2021/01/29 09:24:21;;;;;;;2.17;1.70;;;7.40;99.90;;;;;;5133430;27;20203;-73
2021/01/29 09:27:13;;;;;;;2.45;2.25;;;7.40;99.90;;;;;;5133631;27;20192;-73
2021/01/29 09:29:46;;;;;;;3.05;2.72;;;7.50;99.90;;;;;;5134428;27;20224;-73
2021/01/29 09:32:16;;;;;;;2.20;1.92;;;7.50;99.90;;;;;;5141170;27;20220;-73
2021/01/29 09:34:46;;;;;;;3.42;1.95;;;7.50;99.90;;;;;;5155797;27;20207;-73
2021/01/29 09:37:18;;;;;;;3.92;2.40;;;7.50;99.90;;;;;;5148349;27;20195;-73
2021/01/29 09:39:56;;;;;;;4.72;2.42;;;7.50;99.90;;;;;;5138474;27;20188;-73
2021/01/29 09:42:26;;;;;;;3.58;2.70;;;7.50;99.90;;;;;;5145727;27;20650;-74
2021/01/29 09:44:59;;;;;;;3.35;2.33;;;7.50;99.90;;;;;;5152041;27;20187;-74
2021/01/29 09:47:28;;;;;;;3.83;2.80;;;7.50;99.90;;;;;;5152575;27;20203;-73
2021/01/29 09:50:02;;;;;;;3.05;1.92;;;7.60;99.90;;;;;;5154218;27;20194;-71
2021/01/29 09:52:34;;;;;;;2.88;1.90;;;7.60;99.90;;;;;;5160745;27;20223;-72
2021/01/29 09:55:09;;;;;;;2.22;1.80;;;7.60;99.90;;;;;;5154148;27;20211;-74
2021/01/29 09:57:42;;;;;;;2.20;1.85;;;7.60;99.90;;;;;;5165496;27;20186;-73
2021/01/29 10:00:14;;;;;;;2.03;1.83;;;7.70;99.90;;;;;;5163062;27;20202;-74
2021/01/29 10:02:51;;;;;;;2.80;1.70;;;7.70;99.90;;;;;;5147638;27;20196;-73
2021/01/29 10:05:26;;;;;;;3.10;1.75;;;7.80;99.90;;;;;;5138633;27;20176;-73
2021/01/29 10:08:02;;;;;;;5.78;2.38;;;7.70;99.90;;;;;;5142202;27;20196;-74
2021/01/29 10:10:37;;;;;;;2.28;2.08;;;7.80;99.90;;;;;;5135661;27;20251;-74
2021/01/29 10:13:13;;;;;;;2.08;1.58;;;7.80;99.90;;;;;;5135378;27;20191;-74
2021/01/29 10:15:42;;;;;;;4.10;1.92;;;7.80;99.90;;;;;;5133788;27;20271;-74
2021/01/29 10:18:17;;;;;;;3.78;2.35;;;7.80;99.90;;;;;;5141003;27;20623;-74
2021/01/29 10:20:43;;;;;;;3.08;2.17;;;7.90;99.90;;;;;;5153764;27;20187;-74
2021/01/29 10:23:24;;;;;;;6.45;2.10;;;7.90;99.90;;;;;;5153972;27;20205;-74
2021/01/29 10:26:15;;;;;;;2.40;2.10;;;7.90;99.90;;;;;;5152488;27;20195;-74
2021/01/29 10:29:17;;;;;;;2.97;1.88;;;7.90;99.90;;;;;;5145049;27;20188;-74
2021/01/29 10:31:50;;;;;;;4.93;1.88;;;7.90;99.90;;;;;;5130067;27;20200;-74
2021/01/29 10:34:28;;;;;;;4.13;1.92;;;7.90;99.90;;;;;;5152919;27;20219;-73
2021/01/29 10:37:06;;;;;;;2.97;2.10;;;7.90;99.90;;;;;;5151469;27;20524;-74
2021/01/29 10:39:53;;;;;;;5.00;1.63;;;8.00;99.90;;;;;;5140761;27;20225;-74
2021/01/29 10:42:26;;;;;;;5.82;2.40;;;8.00;99.90;;;;;;5133798;27;20202;-74
2021/01/29 10:44:54;;;;;;;4.90;1.70;;;8.00;99.90;;;;;;5133308;27;20267;-74
2021/01/29 10:47:26;;;;;;;6.47;2.40;;;8.00;99.90;;;;;;5133645;27;20200;-74
2021/01/29 10:49:57;;;;;;;8.13;2.47;;;8.00;99.90;;;;;;5132371;27;20196;-74
2021/01/29 10:52:42;;;;;;;7.07;3.95;;;8.10;99.90;;;;;;5133412;27;20226;-74
2021/01/29 10:55:22;;;;;;;6.47;2.15;;;8.10;99.90;;;;;;5133627;27;20204;-74
2021/01/29 10:58:20;;;;;;;3.85;1.70;;;8.10;99.90;;;;;;5134548;27;20224;-74
2021/01/29 11:00:53;;;;;;;5.20;2.20;;;8.10;99.90;;;;;;5141266;27;20515;-74
2021/01/29 11:03:40;;;;;;;4.38;1.80;;;8.10;99.90;;;;;;5160273;27;20704;-74
2021/01/29 11:06:08;;;;;;;5.82;2.88;;;8.10;99.90;;;;;;5134108;27;20214;-74
2021/01/29 11:08:41;;;;;;;4.60;2.00;;;8.10;99.90;;;;;;5154761;27;20198;-74
2021/01/29 11:11:11;;;;;;;3.65;2.25;;;8.10;99.90;;;;;;5143428;27;20199;-74
2021/01/29 11:13:54;;;;;;;2.80;2.00;;;8.20;99.90;;;;;;5163710;27;20180;-74
2021/01/29 11:16:24;;;;;;;6.65;2.30;;;8.10;99.90;;;;;;5141577;27;20272;-74
2021/01/29 11:18:58;;;;;;;7.57;3.95;;;8.20;99.90;;;;;;5142246;27;20199;-74
2021/01/29 11:21:32;;;;;;;6.28;2.63;;;8.20;99.90;;;;;;5143088;27;20196;-74
2021/01/29 11:24:09;;;;;;;7.15;2.58;;;8.20;99.90;;;;;;5131891;27;20187;-74
2021/01/29 11:26:41;;;;;;;5.65;2.38;;;8.20;99.90;;;;;;5138132;27;20187;-73
2021/01/29 11:29:15;;;;;;;10.82;3.03;;;8.30;99.90;;;;;;5152762;27;20199;-79
2021/01/29 11:31:45;;;;;;;11.23;3.08;;;8.30;99.90;;;;;;5134401;27;20627;-73
2021/01/29 11:34:22;;;;;;;14.35;3.45;;;8.30;99.90;;;;;;5145399;27;20215;-74
2021/01/29 11:36:58;;;;;;;9.82;2.53;;;8.20;99.90;;;;;;5152242;27;20329;-74
2021/01/29 11:39:32;;;;;;;14.73;3.45;;;8.30;99.90;;;;;;5136626;27;20183;-73
2021/01/29 11:42:06;;;;;;;7.40;2.20;;;8.30;99.90;;;;;;5146378;27;20573;-72
2021/01/29 11:44:49;;;;;;;4.38;2.90;;;8.30;99.90;;;;;;5137731;27;20216;-73
2021/01/29 11:47:24;;;;;;;10.63;4.38;;;8.30;99.90;;;;;;5154576;27;20183;-74
2021/01/29 11:50:01;;;;;;;6.70;3.00;;;8.30;99.90;;;;;;5140583;27;20199;-73
2021/01/29 11:52:32;;;;;;;10.80;3.13;;;8.30;99.90;;;;;;5135483;27;20978;-70
2021/01/29 11:55:07;;;;;;;6.97;3.13;;;8.30;99.90;;;;;;5146803;27;20216;-72
2021/01/29 11:57:40;;;;;;;15.68;4.43;;;8.40;99.90;;;;;;5136328;27;20192;-72
2021/01/29 12:00:14;;;;;;;12.32;2.75;;;8.40;99.90;;;;;;5149840;27;20188;-71
2021/01/29 12:02:44;;;;;;;15.18;2.92;;;8.40;99.90;;;;;;5132973;27;20207;-74
2021/01/29 12:05:22;;;;;;;10.15;2.80;;;8.40;99.90;;;;;;5135537;27;20189;-73
2021/01/29 12:08:01;;;;;;;11.65;3.63;;;8.40;99.90;;;;;;5154353;27;20199;-73
2021/01/29 12:10:35;;;;;;;17.42;3.88;;;8.40;99.90;;;;;;5151428;27;20819;-72
2021/01/29 12:13:09;;;;;;;8.10;2.88;;;8.50;99.90;;;;;;5151929;27;20195;-72
2021/01/29 12:15:41;;;;;;;11.10;2.60;;;8.50;99.90;;;;;;5150334;27;20646;-71
2021/01/29 12:18:11;;;;;;;8.93;2.80;;;8.50;99.90;;;;;;5148904;27;20196;-72
2021/01/29 12:20:41;;;;;;;10.18;3.22;;;8.50;99.90;;;;;;5134968;27;20207;-71
2021/01/29 12:23:21;;;;;;;6.03;2.50;;;8.50;99.90;;;;;;5143166;27;20196;-71
2021/01/29 12:26:17;;;;;;;17.00;4.45;;;8.50;99.90;;;;;;5135302;27;20188;-72
2021/01/29 12:29:01;;;;;;;9.00;2.85;;;8.60;99.90;;;;;;5138247;27;20195;-72
2021/01/29 12:31:38;;;;;;;9.13;2.95;;;8.60;99.90;;;;;;5140972;27;20202;-72
2021/01/29 12:34:10;;;;;;;10.75;2.63;;;8.60;99.90;;;;;;5150072;27;20209;-71
2021/01/29 12:36:39;;;;;;;9.18;2.97;;;8.60;99.90;;;;;;5144577;27;20187;-72
2021/01/29 12:39:12;;;;;;;13.43;3.15;;;8.60;99.90;;;;;;5146514;27;20191;-72
2021/01/29 12:41:48;;;;;;;6.00;2.22;;;8.70;99.90;;;;;;5139904;27;20283;-71
2021/01/29 12:44:36;;;;;;;6.90;3.50;;;8.60;99.90;;;;;;5150846;27;20191;-73
2021/01/29 12:47:14;;;;;;;10.60;3.30;;;8.70;99.90;;;;;;5146983;27;20199;-72
2021/01/29 12:49:48;;;;;;;6.45;2.50;;;8.80;99.90;;;;;;5146683;27;20673;-73
2021/01/29 12:52:23;;;;;;;15.63;4.97;;;8.80;99.90;;;;;;5139351;27;20880;-73
2021/01/29 12:54:58;;;;;;;14.98;2.97;;;8.80;99.90;;;;;;5142080;27;20205;-73
2021/01/29 12:57:27;;;;;;;13.27;3.13;;;8.90;99.90;;;;;;5139407;27;20198;-73
2021/01/29 12:59:59;;;;;;;8.93;2.72;;;8.80;99.90;;;;;;5149872;27;20199;-72
2021/01/29 13:02:58;;;;;;;5.72;2.28;;;8.90;99.90;;;;;;5156318;27;20274;-73
2021/01/29 13:05:54;;;;;;;13.73;3.60;;;8.90;99.90;;;;;;5124011;27;20191;-73
2021/01/29 13:08:32;;;;;;;6.63;2.70;;;8.90;99.90;;;;;;5131499;27;20253;-73
2021/01/29 13:11:11;;;;;;;11.82;3.80;;;8.90;99.90;;;;;;5146114;27;20199;-73
2021/01/29 13:13:45;;;;;;;11.30;2.45;;;8.90;99.90;;;;;;5142393;27;20730;-73
2021/01/29 13:16:19;;;;;;;9.38;2.80;;;8.90;99.90;;;;;;5136973;27;20265;-73
2021/01/29 13:19:02;;;;;;;10.52;2.70;;;8.90;99.90;;;;;;5154818;27;20207;-75
2021/01/29 13:21:34;;;;;;;6.10;2.70;;;8.90;99.90;;;;;;5139909;27;20928;-73
2021/01/29 13:24:16;;;;;;;9.13;2.78;;;8.90;99.90;;;;;;5152416;27;20251;-73
2021/01/29 13:26:48;;;;;;;6.13;3.00;;;8.90;99.90;;;;;;5144293;27;20209;-74
2021/01/29 13:29:20;;;;;;;5.00;2.13;;;8.90;99.90;;;;;;5142782;27;20746;-73
2021/01/29 13:31:47;;;;;;;5.40;2.30;;;8.90;99.90;;;;;;5158263;27;20229;-72
2021/01/29 13:34:18;;;;;;;11.48;2.75;;;8.90;99.90;;;;;;5138071;27;20220;-72
2021/01/29 13:37:00;;;;;;;8.73;2.45;;;8.90;99.90;;;;;;5134696;27;20188;-72
2021/01/29 13:39:29;;;;;;;17.42;4.10;;;8.90;99.90;;;;;;5150795;27;20242;-73
2021/01/29 13:41:58;;;;;;;8.95;2.42;;;8.90;99.90;;;;;;5138611;27;20299;-73
2021/01/29 13:44:34;;;;;;;9.20;2.60;;;8.90;99.90;;;;;;5133802;27;20196;-73
2021/01/29 13:47:02;;;;;;;2.85;1.50;;;8.90;99.90;;;;;;5136000;27;20659;-73
2021/01/29 13:49:33;;;;;;;3.83;2.05;;;8.90;99.90;;;;;;5143232;27;20651;-72
2021/01/29 13:52:00;;;;;;;6.68;2.47;;;8.90;99.90;;;;;;5139341;27;20223;-73
2021/01/29 13:54:32;;;;;;;6.00;2.28;;;9.00;99.90;;;;;;5153791;27;20225;-73